sensor_id;sensor_type;location;lat;lon;timestamp;P1;durP1;ratioP1;P2;durP2;ratioP2
37715;SDS011;23562;50.540;12.504;2022-09-28T00:01:21;4.22;;;3.25;;
37715;SDS011;23562;50.540;12.504;2022-09-28T00:03:48;6.38;;;3.45;;
37715;SDS011;23562;50.540;12.504;2022-09-28T00:06:20;4.65;;;3.40;;
37715;SDS011;23562;50.540;12.504;2022-09-28T00:08:48;4.15;;;3.40;;
37715;SDS011;23562;50.540;12.504;2022-09-28T00:11:17;4.40;;;3.42;;
37715;SDS011;23562;50.540;12.504;2022-09-28T00:13:47;3.80;;;3.08;;
37715;SDS011;23562;50.540;12.504;2022-09-28T00:16:15;4.40;;;3.05;;
37715;SDS011;23562;50.540;12.504;2022-09-28T00:18:43;3.95;;;3.08;;
37715;SDS011;23562;50.540;12.504;2022-09-28T00:21:10;3.60;;;2.92;;
37715;SDS011;23562;50.540;12.504;2022-09-28T00:23:37;3.35;;;2.92;;
37715;SDS011;23562;50.540;12.504;2022-09-28T00:26:21;3.08;;;2.60;;
37715;SDS011;23562;50.540;12.504;2022-09-28T00:28:50;3.13;;;2.70;;
37715;SDS011;23562;50.540;12.504;2022-09-28T00:31:16;3.88;;;2.80;;
37715;SDS011;23562;50.540;12.504;2022-09-28T00:33:41;4.60;;;3.00;;
37715;SDS011;23562;50.540;12.504;2022-09-28T00:36:07;3.60;;;2.88;;
37715;SDS011;23562;50.540;12.504;2022-09-28T00:38:32;3.85;;;2.90;;
37715;SDS011;23562;50.540;12.504;2022-09-28T00:40:57;4.10;;;3.10;;
37715;SDS011;23562;50.540;12.504;2022-09-28T00:43:23;3.47;;;2.72;;
37715;SDS011;23562;50.540;12.504;2022-09-28T00:45:52;3.85;;;3.05;;
37715;SDS011;23562;50.540;12.504;2022-09-28T00:48:22;3.97;;;2.70;;
37715;SDS011;23562;50.540;12.504;2022-09-28T00:50:51;4.45;;;3.35;;
37715;SDS011;23562;50.540;12.504;2022-09-28T00:53:17;6.70;;;3.35;;
37715;SDS011;23562;50.540;12.504;2022-09-28T00:58:25;3.97;;;2.85;;
37715;SDS011;23562;50.540;12.504;2022-09-28T01:00:54;4.15;;;3.42;;
37715;SDS011;23562;50.540;12.504;2022-09-28T01:03:21;3.50;;;2.95;;
37715;SDS011;23562;50.540;12.504;2022-09-28T01:05:47;2.70;;;2.40;;
37715;SDS011;23562;50.540;12.504;2022-09-28T01:08:15;4.28;;;2.88;;
37715;SDS011;23562;50.540;12.504;2022-09-28T01:10:43;4.72;;;2.55;;
37715;SDS011;23562;50.540;12.504;2022-09-28T01:13:09;2.65;;;2.45;;
37715;SDS011;23562;50.540;12.504;2022-09-28T01:15:38;3.38;;;2.50;;
37715;SDS011;23562;50.540;12.504;2022-09-28T01:18:34;4.53;;;2.45;;
37715;SDS011;23562;50.540;12.504;2022-09-28T01:23:59;3.58;;;2.72;;
37715;SDS011;23562;50.540;12.504;2022-09-28T01:29:46;4.82;;;2.47;;
37715;SDS011;23562;50.540;12.504;2022-09-28T01:37:54;3.35;;;2.30;;
37715;SDS011;23562;50.540;12.504;2022-09-28T01:40:25;2.90;;;2.17;;
37715;SDS011;23562;50.540;12.504;2022-09-28T01:42:53;2.22;;;2.03;;
37715;SDS011;23562;50.540;12.504;2022-09-28T01:45:26;3.85;;;2.63;;
37715;SDS011;23562;50.540;12.504;2022-09-28T01:48:04;3.25;;;2.30;;
37715;SDS011;23562;50.540;12.504;2022-09-28T01:50:34;3.35;;;2.00;;
37715;SDS011;23562;50.540;12.504;2022-09-28T01:53:06;4.03;;;2.33;;
37715;SDS011;23562;50.540;12.504;2022-09-28T01:55:37;4.00;;;2.42;;
37715;SDS011;23562;50.540;12.504;2022-09-28T01:58:10;3.10;;;2.35;;
37715;SDS011;23562;50.540;12.504;2022-09-28T02:00:44;4.35;;;2.50;;
37715;SDS011;23562;50.540;12.504;2022-09-28T02:03:17;4.45;;;2.45;;
37715;SDS011;23562;50.540;12.504;2022-09-28T02:05:51;6.97;;;2.30;;
37715;SDS011;23562;50.540;12.504;2022-09-28T02:08:25;2.78;;;2.20;;
37715;SDS011;23562;50.540;12.504;2022-09-28T02:11:07;2.92;;;2.58;;
37715;SDS011;23562;50.540;12.504;2022-09-28T02:13:45;3.75;;;2.47;;
37715;SDS011;23562;50.540;12.504;2022-09-28T02:16:28;4.10;;;2.60;;
37715;SDS011;23562;50.540;12.504;2022-09-28T02:19:05;4.80;;;2.83;;
37715;SDS011;23562;50.540;12.504;2022-09-28T02:24:04;3.55;;;2.70;;
37715;SDS011;23562;50.540;12.504;2022-09-28T02:26:34;4.68;;;2.78;;
37715;SDS011;23562;50.540;12.504;2022-09-28T02:29:05;5.15;;;2.55;;
37715;SDS011;23562;50.540;12.504;2022-09-28T02:31:30;4.70;;;2.67;;
37715;SDS011;23562;50.540;12.504;2022-09-28T02:33:56;3.28;;;2.92;;
37715;SDS011;23562;50.540;12.504;2022-09-28T02:36:22;4.03;;;2.80;;
37715;SDS011;23562;50.540;12.504;2022-09-28T02:38:50;3.40;;;2.80;;
37715;SDS011;23562;50.540;12.504;2022-09-28T02:46:31;3.97;;;3.30;;
37715;SDS011;23562;50.540;12.504;2022-09-28T02:54:42;4.40;;;2.95;;
37715;SDS011;23562;50.540;12.504;2022-09-28T02:57:29;3.88;;;2.95;;
37715;SDS011;23562;50.540;12.504;2022-09-28T03:00:03;3.30;;;3.00;;
37715;SDS011;23562;50.540;12.504;2022-09-28T03:02:40;4.60;;;2.97;;
37715;SDS011;23562;50.540;12.504;2022-09-28T03:10:42;4.30;;;2.95;;
37715;SDS011;23562;50.540;12.504;2022-09-28T03:13:11;4.63;;;2.90;;
37715;SDS011;23562;50.540;12.504;2022-09-28T03:15:37;4.50;;;3.20;;
37715;SDS011;23562;50.540;12.504;2022-09-28T03:18:04;4.88;;;3.17;;
37715;SDS011;23562;50.540;12.504;2022-09-28T03:20:30;6.82;;;3.13;;
37715;SDS011;23562;50.540;12.504;2022-09-28T03:22:56;4.25;;;2.72;;
37715;SDS011;23562;50.540;12.504;2022-09-28T03:25:21;5.85;;;3.22;;
37715;SDS011;23562;50.540;12.504;2022-09-28T03:27:47;3.70;;;3.13;;
37715;SDS011;23562;50.540;12.504;2022-09-28T03:30:12;7.03;;;3.20;;
37715;SDS011;23562;50.540;12.504;2022-09-28T03:32:37;5.28;;;3.22;;
37715;SDS011;23562;50.540;12.504;2022-09-28T03:35:05;6.65;;;2.85;;
37715;SDS011;23562;50.540;12.504;2022-09-28T03:37:31;6.50;;;3.17;;
37715;SDS011;23562;50.540;12.504;2022-09-28T03:39:56;4.53;;;2.90;;
37715;SDS011;23562;50.540;12.504;2022-09-28T03:42:22;5.53;;;3.13;;
37715;SDS011;23562;50.540;12.504;2022-09-28T03:44:47;4.18;;;2.90;;
37715;SDS011;23562;50.540;12.504;2022-09-28T03:47:12;5.38;;;2.80;;
37715;SDS011;23562;50.540;12.504;2022-09-28T03:49:39;4.35;;;3.10;;
37715;SDS011;23562;50.540;12.504;2022-09-28T03:52:04;4.18;;;3.00;;
37715;SDS011;23562;50.540;12.504;2022-09-28T03:54:30;6.40;;;3.33;;
37715;SDS011;23562;50.540;12.504;2022-09-28T03:56:55;5.30;;;3.30;;
37715;SDS011;23562;50.540;12.504;2022-09-28T03:59:20;7.05;;;3.22;;
37715;SDS011;23562;50.540;12.504;2022-09-28T04:01:47;6.18;;;3.50;;
37715;SDS011;23562;50.540;12.504;2022-09-28T04:04:13;7.85;;;3.38;;
37715;SDS011;23562;50.540;12.504;2022-09-28T04:06:39;3.88;;;3.28;;
37715;SDS011;23562;50.540;12.504;2022-09-28T04:09:04;5.28;;;3.17;;
37715;SDS011;23562;50.540;12.504;2022-09-28T04:11:30;4.47;;;3.28;;
37715;SDS011;23562;50.540;12.504;2022-09-28T04:13:55;5.40;;;3.58;;
37715;SDS011;23562;50.540;12.504;2022-09-28T04:16:20;5.72;;;3.83;;
37715;SDS011;23562;50.540;12.504;2022-09-28T04:18:45;5.95;;;3.85;;
37715;SDS011;23562;50.540;12.504;2022-09-28T04:21:13;4.82;;;3.70;;
37715;SDS011;23562;50.540;12.504;2022-09-28T04:23:39;5.53;;;3.47;;
37715;SDS011;23562;50.540;12.504;2022-09-28T04:26:06;6.25;;;3.90;;
37715;SDS011;23562;50.540;12.504;2022-09-28T04:28:35;6.97;;;3.92;;
37715;SDS011;23562;50.540;12.504;2022-09-28T04:31:20;9.10;;;4.03;;
37715;SDS011;23562;50.540;12.504;2022-09-28T04:33:46;7.07;;;4.47;;
37715;SDS011;23562;50.540;12.504;2022-09-28T04:36:11;9.30;;;4.95;;
37715;SDS011;23562;50.540;12.504;2022-09-28T04:38:37;10.68;;;5.85;;
37715;SDS011;23562;50.540;12.504;2022-09-28T04:41:03;20.65;;;10.80;;
37715;SDS011;23562;50.540;12.504;2022-09-28T04:43:30;12.15;;;7.53;;
37715;SDS011;23562;50.540;12.504;2022-09-28T04:45:59;10.68;;;6.10;;
37715;SDS011;23562;50.540;12.504;2022-09-28T04:48:25;23.70;;;13.80;;
37715;SDS011;23562;50.540;12.504;2022-09-28T04:50:52;16.10;;;9.15;;
37715;SDS011;23562;50.540;12.504;2022-09-28T04:53:22;26.05;;;12.82;;
37715;SDS011;23562;50.540;12.504;2022-09-28T04:55:57;17.50;;;7.60;;
37715;SDS011;23562;50.540;12.504;2022-09-28T04:58:24;81.18;;;28.08;;
37715;SDS011;23562;50.540;12.504;2022-09-28T05:00:50;105.38;;;36.55;;
37715;SDS011;23562;50.540;12.504;2022-09-28T05:03:18;30.02;;;15.38;;
37715;SDS011;23562;50.540;12.504;2022-09-28T05:05:45;9.88;;;7.10;;
37715;SDS011;23562;50.540;12.504;2022-09-28T05:08:11;6.65;;;5.10;;
37715;SDS011;23562;50.540;12.504;2022-09-28T05:10:36;5.43;;;4.20;;
37715;SDS011;23562;50.540;12.504;2022-09-28T05:13:04;5.50;;;3.72;;
37715;SDS011;23562;50.540;12.504;2022-09-28T05:15:30;6.25;;;3.20;;
37715;SDS011;23562;50.540;12.504;2022-09-28T05:17:55;3.63;;;3.08;;
37715;SDS011;23562;50.540;12.504;2022-09-28T05:20:20;4.18;;;3.25;;
37715;SDS011;23562;50.540;12.504;2022-09-28T05:22:46;3.55;;;3.17;;
37715;SDS011;23562;50.540;12.504;2022-09-28T05:25:11;3.88;;;3.10;;
37715;SDS011;23562;50.540;12.504;2022-09-28T05:27:36;3.90;;;3.03;;
37715;SDS011;23562;50.540;12.504;2022-09-28T05:30:01;7.00;;;2.83;;
37715;SDS011;23562;50.540;12.504;2022-09-28T05:32:27;4.13;;;3.00;;
37715;SDS011;23562;50.540;12.504;2022-09-28T05:34:52;5.38;;;3.13;;
37715;SDS011;23562;50.540;12.504;2022-09-28T05:37:19;6.45;;;4.40;;
37715;SDS011;23562;50.540;12.504;2022-09-28T05:39:44;5.75;;;4.78;;
37715;SDS011;23562;50.540;12.504;2022-09-28T05:42:10;6.38;;;5.10;;
37715;SDS011;23562;50.540;12.504;2022-09-28T05:44:35;4.50;;;3.00;;
37715;SDS011;23562;50.540;12.504;2022-09-28T05:47:02;6.72;;;4.10;;
37715;SDS011;23562;50.540;12.504;2022-09-28T05:49:27;11.57;;;8.18;;
37715;SDS011;23562;50.540;12.504;2022-09-28T05:51:55;7.70;;;5.00;;
37715;SDS011;23562;50.540;12.504;2022-09-28T05:54:20;5.60;;;4.10;;
37715;SDS011;23562;50.540;12.504;2022-09-28T05:56:45;5.65;;;3.60;;
37715;SDS011;23562;50.540;12.504;2022-09-28T05:59:11;6.90;;;3.95;;
37715;SDS011;23562;50.540;12.504;2022-09-28T06:01:37;3.08;;;2.60;;
37715;SDS011;23562;50.540;12.504;2022-09-28T06:04:02;3.55;;;2.90;;
37715;SDS011;23562;50.540;12.504;2022-09-28T06:06:27;3.95;;;2.65;;
37715;SDS011;23562;50.540;12.504;2022-09-28T06:08:53;2.67;;;2.22;;
37715;SDS011;23562;50.540;12.504;2022-09-28T06:11:18;2.83;;;2.53;;
37715;SDS011;23562;50.540;12.504;2022-09-28T06:13:43;4.65;;;3.00;;
37715;SDS011;23562;50.540;12.504;2022-09-28T06:16:12;4.38;;;3.15;;
37715;SDS011;23562;50.540;12.504;2022-09-28T06:18:39;3.35;;;1.90;;
37715;SDS011;23562;50.540;12.504;2022-09-28T06:21:05;5.35;;;2.72;;
37715;SDS011;23562;50.540;12.504;2022-09-28T06:23:32;4.03;;;2.13;;
37715;SDS011;23562;50.540;12.504;2022-09-28T06:25:57;3.75;;;1.70;;
37715;SDS011;23562;50.540;12.504;2022-09-28T06:28:23;2.38;;;1.40;;
37715;SDS011;23562;50.540;12.504;2022-09-28T06:30:50;1.85;;;1.20;;
37715;SDS011;23562;50.540;12.504;2022-09-28T06:33:16;2.08;;;1.00;;
37715;SDS011;23562;50.540;12.504;2022-09-28T06:35:41;1.67;;;1.00;;
37715;SDS011;23562;50.540;12.504;2022-09-28T06:38:06;2.67;;;1.30;;
37715;SDS011;23562;50.540;12.504;2022-09-28T06:40:32;2.78;;;1.58;;
37715;SDS011;23562;50.540;12.504;2022-09-28T06:43:11;2.65;;;1.98;;
37715;SDS011;23562;50.540;12.504;2022-09-28T06:45:38;5.22;;;3.05;;
37715;SDS011;23562;50.540;12.504;2022-09-28T06:48:05;7.28;;;3.22;;
37715;SDS011;23562;50.540;12.504;2022-09-28T06:50:34;2.72;;;2.03;;
37715;SDS011;23562;50.540;12.504;2022-09-28T06:53:01;2.00;;;1.60;;
37715;SDS011;23562;50.540;12.504;2022-09-28T06:55:28;2.22;;;1.40;;
37715;SDS011;23562;50.540;12.504;2022-09-28T06:58:01;3.85;;;1.20;;
37715;SDS011;23562;50.540;12.504;2022-09-28T07:00:28;1.98;;;1.55;;
37715;SDS011;23562;50.540;12.504;2022-09-28T07:02:56;2.35;;;1.23;;
37715;SDS011;23562;50.540;12.504;2022-09-28T07:05:22;2.10;;;1.40;;
37715;SDS011;23562;50.540;12.504;2022-09-28T07:07:56;2.67;;;1.50;;
37715;SDS011;23562;50.540;12.504;2022-09-28T07:10:22;1.58;;;1.23;;
37715;SDS011;23562;50.540;12.504;2022-09-28T07:12:49;1.55;;;1.20;;
37715;SDS011;23562;50.540;12.504;2022-09-28T07:15:15;1.85;;;1.33;;
37715;SDS011;23562;50.540;12.504;2022-09-28T07:17:40;2.05;;;1.10;;
37715;SDS011;23562;50.540;12.504;2022-09-28T07:20:06;2.42;;;1.60;;
37715;SDS011;23562;50.540;12.504;2022-09-28T07:22:31;2.67;;;1.92;;
37715;SDS011;23562;50.540;12.504;2022-09-28T07:24:56;2.17;;;1.98;;
37715;SDS011;23562;50.540;12.504;2022-09-28T07:27:22;4.47;;;2.40;;
37715;SDS011;23562;50.540;12.504;2022-09-28T07:29:47;3.53;;;2.28;;
37715;SDS011;23562;50.540;12.504;2022-09-28T07:32:12;3.13;;;1.75;;
37715;SDS011;23562;50.540;12.504;2022-09-28T07:34:38;1.80;;;1.20;;
37715;SDS011;23562;50.540;12.504;2022-09-28T07:37:09;4.05;;;1.88;;
37715;SDS011;23562;50.540;12.504;2022-09-28T07:39:35;3.15;;;1.70;;
37715;SDS011;23562;50.540;12.504;2022-09-28T07:42:21;2.53;;;1.05;;
37715;SDS011;23562;50.540;12.504;2022-09-28T07:44:46;2.25;;;1.42;;
37715;SDS011;23562;50.540;12.504;2022-09-28T07:47:11;2.75;;;1.70;;
37715;SDS011;23562;50.540;12.504;2022-09-28T07:49:37;2.42;;;1.45;;
37715;SDS011;23562;50.540;12.504;2022-09-28T07:52:02;2.83;;;1.35;;
37715;SDS011;23562;50.540;12.504;2022-09-28T07:54:27;2.90;;;1.90;;
37715;SDS011;23562;50.540;12.504;2022-09-28T07:56:54;4.25;;;1.60;;
37715;SDS011;23562;50.540;12.504;2022-09-28T07:59:19;6.35;;;2.38;;
37715;SDS011;23562;50.540;12.504;2022-09-28T08:01:45;3.95;;;1.88;;
37715;SDS011;23562;50.540;12.504;2022-09-28T08:04:13;7.82;;;2.60;;
37715;SDS011;23562;50.540;12.504;2022-09-28T08:06:38;4.32;;;1.40;;
37715;SDS011;23562;50.540;12.504;2022-09-28T08:09:04;4.03;;;1.60;;
37715;SDS011;23562;50.540;12.504;2022-09-28T08:11:29;5.30;;;3.30;;
37715;SDS011;23562;50.540;12.504;2022-09-28T08:13:54;3.50;;;1.73;;
37715;SDS011;23562;50.540;12.504;2022-09-28T08:16:22;1.52;;;1.30;;
37715;SDS011;23562;50.540;12.504;2022-09-28T08:18:47;2.03;;;1.73;;
37715;SDS011;23562;50.540;12.504;2022-09-28T08:21:13;3.22;;;1.70;;
37715;SDS011;23562;50.540;12.504;2022-09-28T08:23:57;3.38;;;1.33;;
37715;SDS011;23562;50.540;12.504;2022-09-28T08:26:22;3.28;;;1.20;;
37715;SDS011;23562;50.540;12.504;2022-09-28T08:28:48;2.83;;;1.52;;
37715;SDS011;23562;50.540;12.504;2022-09-28T08:31:14;1.98;;;1.20;;
37715;SDS011;23562;50.540;12.504;2022-09-28T08:33:39;1.80;;;1.15;;
37715;SDS011;23562;50.540;12.504;2022-09-28T08:36:06;4.10;;;2.00;;
37715;SDS011;23562;50.540;12.504;2022-09-28T08:38:32;3.05;;;0.90;;
37715;SDS011;23562;50.540;12.504;2022-09-28T08:46:31;2.08;;;1.63;;
37715;SDS011;23562;50.540;12.504;2022-09-28T08:51:46;2.20;;;1.27;;
37715;SDS011;23562;50.540;12.504;2022-09-28T08:54:52;1.10;;;1.00;;
37715;SDS011;23562;50.540;12.504;2022-09-28T08:57:14;2.00;;;1.10;;
37715;SDS011;23562;50.540;12.504;2022-09-28T09:02:20;1.42;;;1.30;;
37715;SDS011;23562;50.540;12.504;2022-09-28T09:04:49;1.58;;;1.48;;
37715;SDS011;23562;50.540;12.504;2022-09-28T09:07:20;2.17;;;1.55;;
37715;SDS011;23562;50.540;12.504;2022-09-28T09:12:26;2.30;;;1.40;;
37715;SDS011;23562;50.540;12.504;2022-09-28T09:15:16;2.53;;;1.80;;
37715;SDS011;23562;50.540;12.504;2022-09-28T09:20:49;1.58;;;1.48;;
37715;SDS011;23562;50.540;12.504;2022-09-28T09:23:26;1.98;;;1.67;;
37715;SDS011;23562;50.540;12.504;2022-09-28T09:26:17;2.28;;;1.15;;
37715;SDS011;23562;50.540;12.504;2022-09-28T09:28:48;3.45;;;1.23;;
37715;SDS011;23562;50.540;12.504;2022-09-28T09:39:37;4.70;;;1.57;;
37715;SDS011;23562;50.540;12.504;2022-09-28T09:47:48;2.13;;;1.55;;
37715;SDS011;23562;50.540;12.504;2022-09-28T09:50:25;2.45;;;1.65;;
37715;SDS011;23562;50.540;12.504;2022-09-28T09:52:59;2.00;;;1.45;;
37715;SDS011;23562;50.540;12.504;2022-09-28T09:55:32;2.05;;;1.80;;
37715;SDS011;23562;50.540;12.504;2022-09-28T09:58:07;2.72;;;1.50;;
37715;SDS011;23562;50.540;12.504;2022-09-28T10:00:40;2.05;;;1.33;;
37715;SDS011;23562;50.540;12.504;2022-09-28T10:03:13;2.28;;;1.40;;
37715;SDS011;23562;50.540;12.504;2022-09-28T10:05:45;1.95;;;1.73;;
37715;SDS011;23562;50.540;12.504;2022-09-28T10:08:16;3.00;;;1.80;;
37715;SDS011;23562;50.540;12.504;2022-09-28T10:10:52;2.03;;;1.30;;
37715;SDS011;23562;50.540;12.504;2022-09-28T10:13:26;1.50;;;1.40;;
37715;SDS011;23562;50.540;12.504;2022-09-28T10:15:53;1.60;;;1.13;;
37715;SDS011;23562;50.540;12.504;2022-09-28T10:18:19;1.77;;;1.20;;
37715;SDS011;23562;50.540;12.504;2022-09-28T10:20:45;3.05;;;1.30;;
37715;SDS011;23562;50.540;12.504;2022-09-28T10:23:20;1.63;;;0.98;;
37715;SDS011;23562;50.540;12.504;2022-09-28T10:25:50;1.20;;;1.10;;
37715;SDS011;23562;50.540;12.504;2022-09-28T10:28:20;1.60;;;1.20;;
37715;SDS011;23562;50.540;12.504;2022-09-28T10:30:53;1.88;;;1.30;;
37715;SDS011;23562;50.540;12.504;2022-09-28T10:33:28;2.45;;;1.50;;
37715;SDS011;23562;50.540;12.504;2022-09-28T10:35:55;2.05;;;1.10;;
37715;SDS011;23562;50.540;12.504;2022-09-28T10:38:22;1.42;;;1.20;;
37715;SDS011;23562;50.540;12.504;2022-09-28T10:40:52;1.45;;;1.30;;
37715;SDS011;23562;50.540;12.504;2022-09-28T10:43:26;1.23;;;1.00;;
37715;SDS011;23562;50.540;12.504;2022-09-28T10:46:09;0.70;;;0.60;;
37715;SDS011;23562;50.540;12.504;2022-09-28T10:51:17;2.80;;;0.80;;
37715;SDS011;23562;50.540;12.504;2022-09-28T10:53:58;1.42;;;0.60;;
37715;SDS011;23562;50.540;12.504;2022-09-28T10:56:28;2.83;;;0.63;;
37715;SDS011;23562;50.540;12.504;2022-09-28T10:58:59;3.55;;;1.10;;
37715;SDS011;23562;50.540;12.504;2022-09-28T11:01:25;2.38;;;0.80;;
37715;SDS011;23562;50.540;12.504;2022-09-28T11:03:58;4.22;;;1.00;;
37715;SDS011;23562;50.540;12.504;2022-09-28T11:06:26;1.52;;;0.80;;
37715;SDS011;23562;50.540;12.504;2022-09-28T11:09:01;2.08;;;1.45;;
37715;SDS011;23562;50.540;12.504;2022-09-28T11:11:28;1.45;;;1.30;;
37715;SDS011;23562;50.540;12.504;2022-09-28T11:13:58;1.50;;;1.00;;
37715;SDS011;23562;50.540;12.504;2022-09-28T11:16:28;1.13;;;0.95;;
37715;SDS011;23562;50.540;12.504;2022-09-28T11:18:56;1.08;;;0.95;;
37715;SDS011;23562;50.540;12.504;2022-09-28T11:21:27;2.28;;;1.40;;
37715;SDS011;23562;50.540;12.504;2022-09-28T11:23:58;2.17;;;1.80;;
37715;SDS011;23562;50.540;12.504;2022-09-28T11:26:44;2.05;;;1.52;;
37715;SDS011;23562;50.540;12.504;2022-09-28T11:32:02;3.22;;;2.00;;
37715;SDS011;23562;50.540;12.504;2022-09-28T11:34:31;4.22;;;2.33;;
37715;SDS011;23562;50.540;12.504;2022-09-28T11:40:02;2.63;;;1.50;;
37715;SDS011;23562;50.540;12.504;2022-09-28T11:43:04;2.35;;;1.40;;
37715;SDS011;23562;50.540;12.504;2022-09-28T11:45:50;1.20;;;1.10;;
37715;SDS011;23562;50.540;12.504;2022-09-28T11:48:22;1.45;;;1.30;;
37715;SDS011;23562;50.540;12.504;2022-09-28T11:58:54;1.65;;;1.42;;
37715;SDS011;23562;50.540;12.504;2022-09-28T12:01:28;1.75;;;1.45;;
37715;SDS011;23562;50.540;12.504;2022-09-28T12:04:04;1.80;;;1.30;;
37715;SDS011;23562;50.540;12.504;2022-09-28T12:06:36;1.98;;;1.58;;
37715;SDS011;23562;50.540;12.504;2022-09-28T12:09:09;1.40;;;1.17;;
37715;SDS011;23562;50.540;12.504;2022-09-28T12:11:43;1.30;;;1.20;;
37715;SDS011;23562;50.540;12.504;2022-09-28T12:14:17;1.30;;;1.20;;
37715;SDS011;23562;50.540;12.504;2022-09-28T12:16:48;2.42;;;1.08;;
37715;SDS011;23562;50.540;12.504;2022-09-28T12:19:21;1.88;;;1.48;;
37715;SDS011;23562;50.540;12.504;2022-09-28T12:22:02;2.28;;;1.42;;
37715;SDS011;23562;50.540;12.504;2022-09-28T12:27:09;2.00;;;1.00;;
37715;SDS011;23562;50.540;12.504;2022-09-28T12:29:43;1.30;;;1.08;;
37715;SDS011;23562;50.540;12.504;2022-09-28T12:34:54;2.10;;;1.90;;
37715;SDS011;23562;50.540;12.504;2022-09-28T12:37:33;1.73;;;1.63;;
37715;SDS011;23562;50.540;12.504;2022-09-28T12:40:22;2.45;;;1.70;;
37715;SDS011;23562;50.540;12.504;2022-09-28T12:43:15;2.58;;;1.90;;
37715;SDS011;23562;50.540;12.504;2022-09-28T12:48:42;3.88;;;1.80;;
37715;SDS011;23562;50.540;12.504;2022-09-28T12:51:26;4.70;;;2.47;;
37715;SDS011;23562;50.540;12.504;2022-09-28T12:57:17;3.33;;;1.90;;
37715;SDS011;23562;50.540;12.504;2022-09-28T13:00:10;4.82;;;2.05;;
37715;SDS011;23562;50.540;12.504;2022-09-28T13:07:50;2.58;;;2.05;;
37715;SDS011;23562;50.540;12.504;2022-09-28T13:13:03;4.10;;;2.05;;
37715;SDS011;23562;50.540;12.504;2022-09-28T13:16:01;2.60;;;1.95;;
37715;SDS011;23562;50.540;12.504;2022-09-28T13:24:13;3.50;;;2.20;;
37715;SDS011;23562;50.540;12.504;2022-09-28T13:26:46;3.08;;;2.15;;
37715;SDS011;23562;50.540;12.504;2022-09-28T13:29:13;2.67;;;2.17;;
37715;SDS011;23562;50.540;12.504;2022-09-28T13:34:14;4.03;;;2.67;;
37715;SDS011;23562;50.540;12.504;2022-09-28T13:36:44;5.55;;;2.30;;
37715;SDS011;23562;50.540;12.504;2022-09-28T13:42:00;2.40;;;2.17;;
37715;SDS011;23562;50.540;12.504;2022-09-28T13:44:29;4.47;;;2.42;;
37715;SDS011;23562;50.540;12.504;2022-09-28T13:47:16;2.67;;;2.10;;
37715;SDS011;23562;50.540;12.504;2022-09-28T13:55:55;3.88;;;2.17;;
37715;SDS011;23562;50.540;12.504;2022-09-28T13:58:37;4.65;;;2.08;;
37715;SDS011;23562;50.540;12.504;2022-09-28T14:01:21;3.38;;;2.30;;
37715;SDS011;23562;50.540;12.504;2022-09-28T14:03:53;2.92;;;2.05;;
37715;SDS011;23562;50.540;12.504;2022-09-28T14:09:18;4.25;;;2.28;;
37715;SDS011;23562;50.540;12.504;2022-09-28T14:14:23;2.90;;;2.13;;
37715;SDS011;23562;50.540;12.504;2022-09-28T14:16:51;3.42;;;2.40;;
37715;SDS011;23562;50.540;12.504;2022-09-28T14:19:42;3.40;;;1.80;;
37715;SDS011;23562;50.540;12.504;2022-09-28T14:22:27;1.70;;;1.60;;
37715;SDS011;23562;50.540;12.504;2022-09-28T14:25:08;2.90;;;2.17;;
37715;SDS011;23562;50.540;12.504;2022-09-28T14:27:57;3.10;;;2.25;;
37715;SDS011;23562;50.540;12.504;2022-09-28T14:30:26;6.40;;;2.30;;
37715;SDS011;23562;50.540;12.504;2022-09-28T14:35:52;4.30;;;2.10;;
37715;SDS011;23562;50.540;12.504;2022-09-28T14:44:03;5.60;;;3.97;;
37715;SDS011;23562;50.540;12.504;2022-09-28T14:46:37;5.07;;;4.15;;
37715;SDS011;23562;50.540;12.504;2022-09-28T14:54:44;16.27;;;9.85;;
37715;SDS011;23562;50.540;12.504;2022-09-28T14:57:15;21.88;;;12.60;;
37715;SDS011;23562;50.540;12.504;2022-09-28T14:59:45;17.25;;;9.27;;
37715;SDS011;23562;50.540;12.504;2022-09-28T15:02:21;22.30;;;10.90;;
37715;SDS011;23562;50.540;12.504;2022-09-28T15:04:55;19.55;;;10.80;;
37715;SDS011;23562;50.540;12.504;2022-09-28T15:10:05;68.88;;;30.08;;
37715;SDS011;23562;50.540;12.504;2022-09-28T15:12:45;51.33;;;24.30;;
37715;SDS011;23562;50.540;12.504;2022-09-28T15:15:18;23.40;;;16.55;;
37715;SDS011;23562;50.540;12.504;2022-09-28T15:18:00;7.00;;;5.65;;
37715;SDS011;23562;50.540;12.504;2022-09-28T15:20:36;3.97;;;3.53;;
37715;SDS011;23562;50.540;12.504;2022-09-28T15:23:21;17.00;;;15.40;;
37715;SDS011;23562;50.540;12.504;2022-09-28T15:25:51;3.58;;;3.00;;
37715;SDS011;23562;50.540;12.504;2022-09-28T15:28:19;4.57;;;3.47;;
37715;SDS011;23562;50.540;12.504;2022-09-28T15:30:46;4.88;;;3.05;;
37715;SDS011;23562;50.540;12.504;2022-09-28T15:33:25;5.85;;;3.00;;
37715;SDS011;23562;50.540;12.504;2022-09-28T15:36:17;3.13;;;2.45;;
37715;SDS011;23562;50.540;12.504;2022-09-28T15:38:50;4.18;;;3.60;;
37715;SDS011;23562;50.540;12.504;2022-09-28T15:41:19;5.35;;;2.67;;
37715;SDS011;23562;50.540;12.504;2022-09-28T15:44:02;4.13;;;2.72;;
37715;SDS011;23562;50.540;12.504;2022-09-28T15:46:33;4.55;;;3.50;;
37715;SDS011;23562;50.540;12.504;2022-09-28T15:49:01;3.40;;;2.63;;
37715;SDS011;23562;50.540;12.504;2022-09-28T15:51:28;5.93;;;3.78;;
37715;SDS011;23562;50.540;12.504;2022-09-28T15:54:12;6.37;;;3.20;;
37715;SDS011;23562;50.540;12.504;2022-09-28T15:56:50;4.60;;;2.70;;
37715;SDS011;23562;50.540;12.504;2022-09-28T16:02:09;5.22;;;3.53;;
37715;SDS011;23562;50.540;12.504;2022-09-28T16:04:39;7.63;;;4.63;;
37715;SDS011;23562;50.540;12.504;2022-09-28T16:12:20;6.55;;;4.90;;
37715;SDS011;23562;50.540;12.504;2022-09-28T16:14:52;8.50;;;6.68;;
37715;SDS011;23562;50.540;12.504;2022-09-28T16:17:26;6.95;;;5.22;;
37715;SDS011;23562;50.540;12.504;2022-09-28T16:19:57;10.77;;;7.57;;
37715;SDS011;23562;50.540;12.504;2022-09-28T16:22:24;9.15;;;6.53;;
37715;SDS011;23562;50.540;12.504;2022-09-28T16:24:54;8.70;;;5.85;;
37715;SDS011;23562;50.540;12.504;2022-09-28T16:27:29;6.18;;;5.18;;
37715;SDS011;23562;50.540;12.504;2022-09-28T16:32:49;5.50;;;4.95;;
37715;SDS011;23562;50.540;12.504;2022-09-28T16:35:33;11.15;;;9.65;;
37715;SDS011;23562;50.540;12.504;2022-09-28T16:38:15;6.30;;;5.15;;
37715;SDS011;23562;50.540;12.504;2022-09-28T16:40:42;5.95;;;4.57;;
37715;SDS011;23562;50.540;12.504;2022-09-28T16:43:26;9.93;;;6.10;;
37715;SDS011;23562;50.540;12.504;2022-09-28T16:45:57;7.65;;;5.60;;
37715;SDS011;23562;50.540;12.504;2022-09-28T16:50:54;10.18;;;6.80;;
37715;SDS011;23562;50.540;12.504;2022-09-28T16:53:20;10.18;;;9.15;;
37715;SDS011;23562;50.540;12.504;2022-09-28T16:56:04;7.50;;;5.35;;
37715;SDS011;23562;50.540;12.504;2022-09-28T16:58:30;15.13;;;8.38;;
37715;SDS011;23562;50.540;12.504;2022-09-28T17:00:56;15.45;;;11.18;;
37715;SDS011;23562;50.540;12.504;2022-09-28T17:03:22;13.73;;;8.02;;
37715;SDS011;23562;50.540;12.504;2022-09-28T17:05:48;7.90;;;5.43;;
37715;SDS011;23562;50.540;12.504;2022-09-28T17:08:15;12.13;;;6.82;;
37715;SDS011;23562;50.540;12.504;2022-09-28T17:10:55;5.63;;;4.00;;
37715;SDS011;23562;50.540;12.504;2022-09-28T17:13:23;6.18;;;4.15;;
37715;SDS011;23562;50.540;12.504;2022-09-28T17:15:57;7.32;;;4.63;;
37715;SDS011;23562;50.540;12.504;2022-09-28T17:18:23;6.90;;;4.63;;
37715;SDS011;23562;50.540;12.504;2022-09-28T17:20:50;10.93;;;4.70;;
37715;SDS011;23562;50.540;12.504;2022-09-28T17:23:18;13.70;;;9.63;;
37715;SDS011;23562;50.540;12.504;2022-09-28T17:25:45;6.32;;;4.95;;